createdAt,value
2018-12-07T00:00:51.877Z,966.84
2018-12-07T00:01:51.819Z,966.82
2018-12-07T00:02:51.767Z,966.76
2018-12-07T00:03:51.746Z,966.84
2018-12-07T00:04:51.661Z,966.80
2018-12-07T00:05:51.643Z,966.83
2018-12-07T00:06:51.556Z,966.84
2018-12-07T00:07:51.513Z,966.82
2018-12-07T00:08:51.453Z,966.80
2018-12-07T00:09:51.399Z,966.75
2018-12-07T00:10:51.396Z,966.79
2018-12-07T00:11:51.294Z,966.86
2018-12-07T00:12:51.242Z,966.81
2018-12-07T00:13:51.191Z,966.89
2018-12-07T00:14:51.139Z,966.79
2018-12-07T00:15:51.110Z,966.83
2018-12-07T00:16:51.029Z,966.76
2018-12-07T00:17:50.979Z,966.80
2018-12-07T00:18:50.925Z,966.70
2018-12-07T00:19:50.871Z,966.74
2018-12-07T00:20:50.853Z,966.79
2018-12-07T00:21:50.764Z,966.71
2018-12-07T00:22:50.717Z,966.73
2018-12-07T00:23:50.665Z,966.75
2018-12-07T00:24:50.604Z,966.80
2018-12-07T00:25:50.594Z,966.71
2018-12-07T00:26:50.499Z,966.70
2018-12-07T00:27:50.454Z,966.68
2018-12-07T00:28:50.440Z,966.57
2018-12-07T00:29:50.348Z,966.62
2018-12-07T00:30:50.289Z,966.65
2018-12-07T00:31:50.245Z,966.66
2018-12-07T00:32:50.187Z,966.59
2018-12-07T00:33:50.175Z,966.55
2018-12-07T00:34:50.085Z,966.57
2018-12-07T00:35:50.026Z,966.57
2018-12-07T00:36:49.976Z,966.52
2018-12-07T00:37:49.925Z,966.60
2018-12-07T00:38:49.901Z,966.65
2018-12-07T00:39:49.814Z,966.59
2018-12-07T00:40:49.762Z,966.52
2018-12-07T00:41:49.714Z,966.55
2018-12-07T00:42:49.683Z,966.49
2018-12-07T00:43:49.637Z,966.47
2018-12-07T00:44:49.553Z,966.43
2018-12-07T00:45:49.566Z,966.54
2018-12-07T00:46:49.479Z,966.41
2018-12-07T00:47:49.395Z,966.43
2018-12-07T00:48:49.374Z,966.44
2018-12-07T00:49:49.291Z,966.38
2018-12-07T00:50:49.324Z,966.37
2018-12-07T00:51:49.217Z,966.36
2018-12-07T00:52:49.131Z,966.37
2018-12-07T00:53:49.082Z,966.32
2018-12-07T00:54:49.026Z,966.28
2018-12-07T00:55:48.975Z,966.26
2018-12-07T00:56:48.954Z,966.37
2018-12-07T00:57:48.873Z,966.34
2018-12-07T00:58:48.817Z,966.29
2018-12-07T00:59:48.767Z,966.29
2018-12-07T01:00:48.772Z,966.32
2018-12-07T01:01:48.692Z,966.30
2018-12-07T01:02:48.605Z,966.28
2018-12-07T01:03:48.551Z,966.28
2018-12-07T01:04:48.501Z,966.25
2018-12-07T01:05:48.454Z,966.22
2018-12-07T01:06:48.423Z,966.26
2018-12-07T01:07:48.341Z,966.16
2018-12-07T01:08:48.290Z,966.18
2018-12-07T01:09:48.239Z,966.17
2018-12-07T01:10:48.183Z,966.14
2018-12-07T01:11:48.161Z,966.13
2018-12-07T01:12:48.077Z,966.12
2018-12-07T01:13:48.024Z,966.19
2018-12-07T01:14:47.971Z,966.15
2018-12-07T01:15:47.919Z,966.13
2018-12-07T01:16:47.904Z,966.11
2018-12-07T01:17:47.812Z,966.09
2018-12-07T01:18:47.795Z,966.11
2018-12-07T01:19:47.707Z,966.13
2018-12-07T01:20:47.686Z,966.09
2018-12-07T01:21:47.603Z,966.10
2018-12-07T01:22:47.551Z,966.11
2018-12-07T01:23:47.501Z,966.14
2018-12-07T01:24:47.449Z,966.18
2018-12-07T01:25:47.434Z,966.15
2018-12-07T01:26:47.346Z,966.16
2018-12-07T01:27:47.285Z,966.07
2018-12-07T01:28:47.267Z,966.11
2018-12-07T01:29:47.183Z,966.19
2018-12-07T01:30:47.131Z,966.15
2018-12-07T01:31:47.080Z,966.12
2018-12-07T01:32:47.056Z,966.21
2018-12-07T01:33:46.973Z,966.13
2018-12-07T01:34:46.925Z,966.17
2018-12-07T01:35:46.870Z,966.10
2018-12-07T01:36:46.847Z,966.10
2018-12-07T01:37:46.761Z,966.09
2018-12-07T01:38:46.720Z,966.10
2018-12-07T01:39:46.656Z,966.17
2018-12-07T01:40:46.626Z,966.16
2018-12-07T01:41:46.551Z,966.13
2018-12-07T01:42:46.497Z,966.16
2018-12-07T01:43:46.479Z,966.17
2018-12-07T01:44:46.394Z,966.15
2018-12-07T01:45:46.342Z,966.17
2018-12-07T01:46:46.288Z,966.16
2018-12-07T01:47:46.233Z,966.09
2018-12-07T01:48:46.210Z,966.06
2018-12-07T01:49:46.128Z,966.06
2018-12-07T01:50:46.075Z,966.05
2018-12-07T01:51:46.024Z,966.05
2018-12-07T01:52:45.970Z,966.01
2018-12-07T01:53:45.947Z,966.01
2018-12-07T01:54:45.898Z,966.00
2018-12-07T01:55:45.814Z,965.99
2018-12-07T01:56:45.762Z,965.98
2018-12-07T01:57:45.709Z,965.89
2018-12-07T01:58:45.653Z,965.93
2018-12-07T01:59:45.730Z,965.96
2018-12-07T02:00:45.550Z,965.99
2018-12-07T02:01:45.495Z,965.97
2018-12-07T02:02:45.445Z,965.99
2018-12-07T02:03:45.397Z,965.93
2018-12-07T02:04:45.371Z,965.85
2018-12-07T02:05:45.285Z,965.89
2018-12-07T02:06:45.233Z,965.88
2018-12-07T02:07:45.211Z,965.85
2018-12-07T02:08:45.138Z,965.84
2018-12-07T02:09:45.080Z,965.87
2018-12-07T02:10:45.059Z,965.84
2018-12-07T02:11:44.977Z,965.84
2018-12-07T02:12:44.917Z,965.83
2018-12-07T02:13:44.873Z,965.88
2018-12-07T02:14:44.815Z,965.83
2018-12-07T02:15:44.801Z,965.78
2018-12-07T02:16:44.708Z,965.76
2018-12-07T02:17:44.655Z,965.85
2018-12-07T02:18:44.604Z,965.75
2018-12-07T02:19:44.551Z,965.75
2018-12-07T02:20:44.527Z,965.78
2018-12-07T02:21:44.449Z,965.75
2018-12-07T02:22:44.390Z,965.76
2018-12-07T02:23:44.340Z,965.82
2018-12-07T02:24:44.286Z,965.76
2018-12-07T02:25:44.265Z,965.80
2018-12-07T02:26:44.181Z,965.78
2018-12-07T02:27:44.132Z,965.78
2018-12-07T02:28:44.078Z,965.76
2018-12-07T02:29:44.025Z,965.74
2018-12-07T02:30:44.010Z,965.72
2018-12-07T02:31:43.918Z,965.69
2018-12-07T02:32:43.863Z,965.68
2018-12-07T02:33:43.820Z,965.72
2018-12-07T02:34:43.761Z,965.66
2018-12-07T02:35:43.740Z,965.60
2018-12-07T02:36:43.656Z,965.66
2018-12-07T02:37:43.606Z,965.60
2018-12-07T02:38:43.548Z,965.55
2018-12-07T02:39:43.496Z,965.50
2018-12-07T02:40:43.474Z,965.49
2018-12-07T02:41:43.395Z,965.50
2018-12-07T02:42:43.341Z,965.47
2018-12-07T02:43:43.396Z,965.48
2018-12-07T02:44:43.232Z,965.42
2018-12-07T02:45:43.183Z,965.39
2018-12-07T02:46:43.131Z,965.38
2018-12-07T02:47:43.078Z,965.36
2018-12-07T02:48:43.058Z,965.34
2018-12-07T02:49:42.982Z,965.32
2018-12-07T02:50:42.920Z,965.36
2018-12-07T02:51:42.868Z,965.36
2018-12-07T02:52:42.848Z,965.34
2018-12-07T02:53:42.761Z,965.30
2018-12-07T02:54:42.712Z,965.35
2018-12-07T02:55:42.700Z,965.31
2018-12-07T02:56:42.605Z,965.33
2018-12-07T02:57:42.549Z,965.30
2018-12-07T02:58:42.496Z,965.38
2018-12-07T02:59:42.445Z,965.36
2018-12-07T03:00:42.426Z,965.37
2018-12-07T03:01:42.340Z,965.40
2018-12-07T03:02:42.340Z,965.33
2018-12-07T03:03:42.234Z,965.33
2018-12-07T03:04:42.185Z,965.33
2018-12-07T03:05:42.171Z,965.35
2018-12-07T03:06:42.075Z,965.25
2018-12-07T03:07:42.024Z,965.27
2018-12-07T03:08:41.972Z,965.28
2018-12-07T03:09:41.921Z,965.29
2018-12-07T03:10:41.932Z,965.26
2018-12-07T03:11:41.812Z,965.22
2018-12-07T03:12:41.760Z,965.22
2018-12-07T03:13:41.712Z,965.22
2018-12-07T03:14:41.658Z,965.16
2018-12-07T03:15:41.639Z,965.22
2018-12-07T03:16:41.556Z,965.30
2018-12-07T03:17:41.498Z,965.25
2018-12-07T03:18:41.447Z,965.26
2018-12-07T03:19:41.438Z,965.26
2018-12-07T03:20:41.340Z,965.22
2018-12-07T03:21:41.291Z,965.20
2018-12-07T03:22:41.268Z,965.20
2018-12-07T03:23:41.186Z,965.22
2018-12-07T03:24:41.166Z,965.24
2018-12-07T03:25:41.076Z,965.26
2018-12-07T03:26:41.025Z,965.22
2018-12-07T03:27:40.975Z,965.19
2018-12-07T03:28:40.922Z,965.20
2018-12-07T03:29:40.899Z,965.18
2018-12-07T03:30:40.813Z,965.18
2018-12-07T03:31:40.794Z,965.13
2018-12-07T03:32:40.713Z,965.19
2018-12-07T03:33:40.659Z,965.16
2018-12-07T03:34:40.635Z,965.11
2018-12-07T03:35:40.550Z,965.11
2018-12-07T03:36:40.542Z,965.09
2018-12-07T03:37:40.444Z,965.06
2018-12-07T03:38:40.396Z,965.07
2018-12-07T03:39:40.377Z,965.03
2018-12-07T03:40:40.287Z,964.98
2018-12-07T03:41:40.238Z,964.97
2018-12-07T03:42:40.178Z,965.01
2018-12-07T03:43:40.130Z,964.97
2018-12-07T03:44:40.112Z,964.98
2018-12-07T03:45:40.061Z,964.96
2018-12-07T03:46:39.972Z,964.92
2018-12-07T03:47:39.920Z,964.92
2018-12-07T03:48:39.864Z,964.93
2018-12-07T03:49:39.815Z,964.94
2018-12-07T03:50:39.800Z,964.91
2018-12-07T03:51:39.705Z,964.92
2018-12-07T03:52:39.655Z,964.86
2018-12-07T03:53:39.602Z,964.86
2018-12-07T03:54:39.549Z,964.84
2018-12-07T03:55:39.529Z,964.83
2018-12-07T03:56:39.445Z,964.80
2018-12-07T03:57:39.393Z,964.83
2018-12-07T03:58:39.369Z,964.75
2018-12-07T03:59:39.286Z,964.74
2018-12-07T04:00:39.238Z,964.74
2018-12-07T04:01:39.188Z,964.79
2018-12-07T04:02:39.157Z,964.78
2018-12-07T04:03:39.077Z,964.71
2018-12-07T04:04:39.033Z,964.68
2018-12-07T04:05:38.970Z,964.67
2018-12-07T04:06:38.952Z,964.67
2018-12-07T04:07:38.896Z,964.71
2018-12-07T04:08:38.812Z,964.69
2018-12-07T04:09:38.761Z,964.67
2018-12-07T04:10:38.740Z,964.67
2018-12-07T04:11:38.653Z,964.67
2018-12-07T04:12:38.603Z,964.64
2018-12-07T04:13:38.578Z,964.69
2018-12-07T04:14:38.528Z,964.62
2018-12-07T04:15:38.442Z,964.65
2018-12-07T04:16:38.396Z,964.62
2018-12-07T04:17:38.338Z,964.65
2018-12-07T04:18:38.286Z,964.67
2018-12-07T04:19:38.271Z,964.63
2018-12-07T04:20:38.178Z,964.66
2018-12-07T04:21:38.137Z,964.63
2018-12-07T04:22:38.074Z,964.59
2018-12-07T04:23:38.021Z,964.60
2018-12-07T04:24:38.000Z,964.68
2018-12-07T04:25:37.913Z,964.67
2018-12-07T04:26:37.898Z,964.63
2018-12-07T04:27:37.842Z,964.63
2018-12-07T04:28:37.758Z,964.65
2018-12-07T04:29:37.704Z,964.59
2018-12-07T04:30:37.654Z,964.59
2018-12-07T04:31:37.633Z,964.62
2018-12-07T04:32:37.547Z,964.62
2018-12-07T04:33:37.494Z,964.65
2018-12-07T04:34:37.441Z,964.56
2018-12-07T04:35:37.422Z,964.54
2018-12-07T04:36:37.336Z,964.44
2018-12-07T04:37:37.280Z,964.48
2018-12-07T04:38:37.230Z,964.47
2018-12-07T04:39:37.213Z,964.48
2018-12-07T04:40:37.123Z,964.47
2018-12-07T04:41:37.071Z,964.49
2018-12-07T04:42:37.058Z,964.45
2018-12-07T04:43:36.971Z,964.47
2018-12-07T04:44:36.921Z,964.40
2018-12-07T04:45:36.864Z,964.44
2018-12-07T04:46:36.807Z,964.40
2018-12-07T04:47:36.787Z,964.43
2018-12-07T04:48:36.703Z,964.36
2018-12-07T04:49:36.652Z,964.43
2018-12-07T04:50:36.598Z,964.40
2018-12-07T04:51:36.673Z,964.41
2018-12-07T04:52:36.496Z,964.37
2018-12-07T04:53:36.438Z,964.37
2018-12-07T04:54:36.421Z,964.36
2018-12-07T04:55:36.332Z,964.38
2018-12-07T04:56:36.285Z,964.42
2018-12-07T04:57:36.274Z,964.42
2018-12-07T04:58:36.177Z,964.34
2018-12-07T04:59:36.124Z,964.37
2018-12-07T05:00:36.074Z,964.32
2018-12-07T05:01:36.017Z,964.37
2018-12-07T05:02:35.995Z,964.36
2018-12-07T05:03:35.944Z,964.34
2018-12-07T05:04:35.857Z,964.35
2018-12-07T05:05:35.837Z,964.33
2018-12-07T05:06:35.752Z,964.36
2018-12-07T05:07:35.697Z,964.33
2018-12-07T05:08:35.651Z,964.36
2018-12-07T05:09:35.625Z,964.32
2018-12-07T05:10:35.541Z,964.30
2018-12-07T05:11:35.490Z,964.24
2018-12-07T05:12:35.465Z,964.23
2018-12-07T05:13:35.383Z,964.25
2018-12-07T05:14:35.330Z,964.20
2018-12-07T05:15:35.276Z,964.25
2018-12-07T05:16:35.223Z,964.23
2018-12-07T05:17:35.200Z,964.19
2018-12-07T05:18:35.116Z,964.20
2018-12-07T05:19:35.085Z,964.12
2018-12-07T05:20:35.104Z,964.16
2018-12-07T05:21:34.960Z,964.14
2018-12-07T05:22:34.942Z,964.17
2018-12-07T05:23:34.857Z,964.15
2018-12-07T05:24:34.821Z,964.15
2018-12-07T05:25:34.750Z,964.12
2018-12-07T05:26:34.694Z,964.15
2018-12-07T05:27:34.672Z,963.97
2018-12-07T05:28:34.628Z,964.09
2018-12-07T05:29:34.538Z,964.10
2018-12-07T05:30:34.481Z,964.05
2018-12-07T05:31:34.431Z,964.07
2018-12-07T05:32:34.383Z,964.07
2018-12-07T05:33:34.367Z,964.06
2018-12-07T05:34:34.271Z,964.03
2018-12-07T05:35:34.220Z,964.08
2018-12-07T05:36:34.164Z,964.01
2018-12-07T05:37:34.114Z,964.01
2018-12-07T05:38:34.090Z,964.06
2018-12-07T05:39:34.044Z,964.02
2018-12-07T05:40:33.956Z,964.05
2018-12-07T05:41:33.937Z,963.96
2018-12-07T05:42:33.846Z,963.99
2018-12-07T05:43:33.798Z,964.07
2018-12-07T05:44:33.782Z,964.03
2018-12-07T05:45:33.690Z,963.92
2018-12-07T05:46:33.636Z,963.94
2018-12-07T05:47:33.584Z,963.92
2018-12-07T05:48:33.533Z,963.96
2018-12-07T05:49:33.508Z,963.95
2018-12-07T05:50:33.426Z,963.91
2018-12-07T05:51:33.438Z,963.92
2018-12-07T05:52:33.322Z,963.89
2018-12-07T05:53:33.297Z,963.93
2018-12-07T05:54:33.214Z,963.87
2018-12-07T05:55:33.162Z,963.99
2018-12-07T05:56:33.106Z,963.84
2018-12-07T05:57:33.054Z,963.88
2018-12-07T05:58:33.035Z,963.85
2018-12-07T05:59:32.950Z,963.86
2018-12-07T06:00:32.900Z,963.92
2018-12-07T06:01:32.842Z,963.84
2018-12-07T06:02:32.787Z,963.92
2018-12-07T06:03:32.784Z,963.92
2018-12-07T06:04:32.683Z,963.92
2018-12-07T06:05:32.631Z,963.87
2018-12-07T06:06:32.578Z,963.94
2018-12-07T06:07:32.537Z,963.91
2018-12-07T06:08:32.503Z,963.91
2018-12-07T06:09:32.416Z,963.89
2018-12-07T06:10:32.365Z,963.91
2018-12-07T06:11:32.311Z,963.90
2018-12-07T06:12:32.261Z,963.92
2018-12-07T06:13:32.246Z,963.89
2018-12-07T06:14:32.155Z,963.86
2018-12-07T06:15:32.102Z,963.85
2018-12-07T06:16:32.046Z,963.83
2018-12-07T06:17:31.996Z,963.83
2018-12-07T06:18:31.981Z,963.86
2018-12-07T06:19:31.889Z,963.79
2018-12-07T06:20:31.835Z,963.79
2018-12-07T06:21:31.784Z,963.81
2018-12-07T06:22:31.730Z,963.84
2018-12-07T06:23:31.716Z,963.80
2018-12-07T06:24:31.626Z,963.81
2018-12-07T06:25:31.569Z,963.75
2018-12-07T06:26:31.516Z,963.71
2018-12-07T06:27:31.464Z,963.74
2018-12-07T06:28:31.462Z,963.72
2018-12-07T06:29:31.360Z,963.75
2018-12-07T06:30:31.306Z,963.71
2018-12-07T06:31:31.261Z,963.71
2018-12-07T06:32:36.071Z,963.76
2018-12-07T06:33:31.181Z,963.77
2018-12-07T06:34:31.093Z,963.72
2018-12-07T06:35:31.071Z,963.71
2018-12-07T06:36:30.985Z,963.74
2018-12-07T06:37:30.933Z,963.69
2018-12-07T06:38:30.882Z,963.76
2018-12-07T06:39:30.828Z,963.69
2018-12-07T06:40:30.804Z,963.71
2018-12-07T06:41:30.722Z,963.66
2018-12-07T06:42:30.669Z,963.66
2018-12-07T06:43:30.618Z,963.64
2018-12-07T06:44:30.593Z,963.76
2018-12-07T06:45:30.511Z,963.81
2018-12-07T06:46:30.458Z,963.64
2018-12-07T06:47:30.405Z,963.58
2018-12-07T06:48:30.353Z,963.72
2018-12-07T06:49:30.331Z,963.71
2018-12-07T06:50:30.245Z,963.61
2018-12-07T06:51:30.193Z,963.64
2018-12-07T06:52:30.140Z,963.58
2018-12-07T06:53:30.086Z,963.66
2018-12-07T06:54:30.066Z,963.61
2018-12-07T06:55:29.982Z,963.54
2018-12-07T06:56:29.928Z,963.60
2018-12-07T06:57:29.875Z,963.52
2018-12-07T06:58:29.826Z,963.54
2018-12-07T06:59:29.799Z,963.52
2018-12-07T07:00:29.715Z,963.55
2018-12-07T07:01:29.665Z,963.55
2018-12-07T07:02:29.640Z,963.50
2018-12-07T07:03:29.554Z,963.53
2018-12-07T07:04:29.534Z,963.46
2018-12-07T07:05:29.453Z,963.52
2018-12-07T07:06:29.427Z,963.49
2018-12-07T07:07:29.341Z,963.42
2018-12-07T07:08:29.291Z,963.50
2018-12-07T07:09:29.270Z,963.46
2018-12-07T07:10:29.182Z,963.56
2018-12-07T07:11:29.164Z,963.50
2018-12-07T07:12:29.320Z,963.45
2018-12-07T07:13:29.028Z,963.44
2018-12-07T07:14:28.973Z,963.46
2018-12-07T07:15:28.921Z,963.41
2018-12-07T07:16:28.866Z,963.42
2018-12-07T07:17:28.860Z,963.51
2018-12-07T07:18:28.760Z,963.43
2018-12-07T07:19:28.704Z,963.42
2018-12-07T07:20:28.655Z,963.42
2018-12-07T07:21:28.601Z,963.36
2018-12-07T07:22:28.595Z,963.39
2018-12-07T07:23:28.492Z,963.35
2018-12-07T07:24:28.441Z,963.32
2018-12-07T07:25:28.388Z,963.39
2018-12-07T07:26:28.335Z,963.28
2018-12-07T07:27:28.312Z,963.37
2018-12-07T07:28:28.232Z,963.24
2018-12-07T07:29:28.178Z,963.31
2018-12-07T07:30:28.189Z,963.33
2018-12-07T07:31:28.100Z,963.34
2018-12-07T07:32:28.018Z,963.35
2018-12-07T07:33:27.963Z,963.32
2018-12-07T07:34:27.915Z,963.35
2018-12-07T07:35:27.877Z,963.32
2018-12-07T07:36:27.802Z,963.30
2018-12-07T07:37:27.753Z,963.24
2018-12-07T07:38:27.735Z,963.27
2018-12-07T07:39:27.641Z,963.27
2018-12-07T07:40:27.591Z,963.28
2018-12-07T07:41:27.539Z,963.24
2018-12-07T07:42:27.484Z,963.31
2018-12-07T07:43:27.461Z,963.23
2018-12-07T07:44:27.379Z,963.26
2018-12-07T07:45:27.355Z,963.19
2018-12-07T07:46:27.299Z,963.25
2018-12-07T07:47:27.216Z,963.22
2018-12-07T07:48:27.170Z,963.20
2018-12-07T07:49:27.113Z,963.20
2018-12-07T07:50:27.056Z,963.21
2018-12-07T07:51:27.035Z,963.27
2018-12-07T07:52:26.949Z,963.20
2018-12-07T07:53:26.901Z,963.24
2018-12-07T07:54:26.845Z,963.20
2018-12-07T07:55:26.791Z,963.18
2018-12-07T07:56:26.774Z,963.22
2018-12-07T07:57:26.690Z,963.29
2018-12-07T07:58:26.664Z,963.27
2018-12-07T07:59:26.615Z,963.28
2018-12-07T08:00:26.528Z,963.30
2018-12-07T08:01:26.472Z,963.29
2018-12-07T08:02:26.419Z,963.26
2018-12-07T08:03:26.371Z,963.27
2018-12-07T08:04:26.343Z,963.19
2018-12-07T08:05:26.293Z,963.27
2018-12-07T08:06:26.207Z,963.23
2018-12-07T08:07:26.154Z,963.24
2018-12-07T08:08:26.101Z,963.14
2018-12-07T08:09:26.049Z,963.21
2018-12-07T08:10:26.045Z,963.26
2018-12-07T08:11:25.940Z,963.10
2018-12-07T08:12:25.884Z,963.12
2018-12-07T08:13:25.834Z,963.14
2018-12-07T08:14:25.780Z,963.13
2018-12-07T08:15:25.757Z,963.11
2018-12-07T08:16:25.717Z,963.20
2018-12-07T08:17:25.622Z,963.05
2018-12-07T08:18:25.575Z,963.04
2018-12-07T08:19:25.521Z,963.08
2018-12-07T08:20:25.460Z,963.07
2018-12-07T08:21:25.443Z,962.94
2018-12-07T08:22:25.353Z,962.96
2018-12-07T08:23:25.331Z,962.95
2018-12-07T08:24:25.254Z,962.92
2018-12-07T08:25:25.196Z,962.84
2018-12-07T08:26:25.146Z,962.84
2018-12-07T08:27:25.090Z,962.83
2018-12-07T08:28:25.068Z,962.90
2018-12-07T08:29:24.985Z,962.85
2018-12-07T08:30:24.928Z,962.83
2018-12-07T08:31:24.877Z,962.84
2018-12-07T08:32:24.826Z,962.76
2018-12-07T08:33:24.821Z,962.87
2018-12-07T08:34:24.714Z,962.75
2018-12-07T08:35:24.660Z,962.79
2018-12-07T08:36:24.609Z,962.89
2018-12-07T08:37:24.554Z,962.75
2018-12-07T08:38:24.533Z,962.83
2018-12-07T08:39:24.448Z,962.73
2018-12-07T08:40:24.396Z,962.72
2018-12-07T08:41:24.343Z,962.66
2018-12-07T08:42:24.331Z,962.74
2018-12-07T08:43:24.233Z,962.67
2018-12-07T08:44:24.180Z,962.67
2018-12-07T08:45:24.128Z,962.68
2018-12-07T08:46:24.071Z,962.68
2018-12-07T08:47:24.056Z,962.66
2018-12-07T08:48:23.972Z,962.62
2018-12-07T08:49:23.914Z,962.63
2018-12-07T08:50:23.861Z,962.60
2018-12-07T08:51:23.839Z,962.61
2018-12-07T08:52:23.787Z,962.59
2018-12-07T08:53:23.700Z,962.57
2018-12-07T08:54:23.645Z,962.52
2018-12-07T08:55:23.593Z,962.53
2018-12-07T08:56:23.572Z,962.51
2018-12-07T08:57:23.487Z,962.57
2018-12-07T08:58:23.435Z,962.50
2018-12-07T08:59:23.408Z,962.56
2018-12-07T09:00:23.326Z,962.57
2018-12-07T09:01:23.312Z,962.55
2018-12-07T09:02:23.219Z,962.54
2018-12-07T09:03:23.225Z,962.54
2018-12-07T09:04:23.143Z,962.53
2018-12-07T09:05:23.092Z,962.57
2018-12-07T09:06:23.011Z,962.48
2018-12-07T09:07:22.955Z,962.47
2018-12-07T09:08:22.917Z,962.49
2018-12-07T09:09:22.868Z,962.61
2018-12-07T09:10:22.913Z,962.48
2018-12-07T09:11:22.737Z,962.44
2018-12-07T09:12:22.718Z,962.46
2018-12-07T09:13:22.639Z,962.45
2018-12-07T09:14:22.578Z,962.50
2018-12-07T09:15:22.556Z,962.54
2018-12-07T09:16:22.477Z,962.51
2018-12-07T09:17:22.416Z,962.43
2018-12-07T09:18:22.365Z,962.49
2018-12-07T09:19:22.345Z,962.39
2018-12-07T09:20:22.291Z,962.45
2018-12-07T09:21:22.205Z,962.44
2018-12-07T09:22:22.153Z,962.44
2018-12-07T09:23:22.099Z,962.44
2018-12-07T09:24:22.075Z,962.34
2018-12-07T09:25:21.991Z,962.43
2018-12-07T09:26:21.937Z,962.44
2018-12-07T09:27:21.882Z,962.29
2018-12-07T09:28:21.869Z,962.35
2018-12-07T09:29:21.775Z,962.32
2018-12-07T09:30:21.750Z,962.32
2018-12-07T09:31:21.669Z,962.27
2018-12-07T09:32:21.616Z,962.23
2018-12-07T09:33:21.592Z,962.21
2018-12-07T09:34:21.511Z,962.14
2018-12-07T09:35:21.454Z,962.12
2018-12-07T09:36:21.402Z,962.16
2018-12-07T09:37:21.405Z,962.14
2018-12-07T09:38:21.294Z,962.14
2018-12-07T09:39:21.246Z,962.09
2018-12-07T09:40:21.188Z,962.07
2018-12-07T09:41:21.164Z,962.11
2018-12-07T09:42:21.079Z,962.03
2018-12-07T09:43:21.025Z,962.01
2018-12-07T09:44:20.972Z,962.04
2018-12-07T09:45:20.924Z,962.03
2018-12-07T09:46:20.900Z,962.02
2018-12-07T09:47:20.814Z,961.91
2018-12-07T09:48:20.763Z,961.90
2018-12-07T09:49:20.737Z,961.94
2018-12-07T09:50:20.654Z,961.91
2018-12-07T09:51:20.599Z,962.01
2018-12-07T09:52:20.583Z,961.88
2018-12-07T09:53:20.526Z,961.96
2018-12-07T09:54:20.441Z,961.94
2018-12-07T09:55:20.391Z,961.99
2018-12-07T09:56:20.339Z,961.91
2018-12-07T09:57:20.313Z,961.87
2018-12-07T09:58:20.230Z,961.87
2018-12-07T09:59:20.206Z,961.86
2018-12-07T10:00:20.119Z,961.80
2018-12-07T10:01:20.066Z,961.86
2018-12-07T10:02:20.011Z,961.84
2018-12-07T10:03:19.992Z,961.75
2018-12-07T10:04:19.906Z,961.82
2018-12-07T10:05:19.852Z,961.68
2018-12-07T10:06:19.801Z,961.74
2018-12-07T10:07:19.775Z,961.79
2018-12-07T10:08:19.698Z,961.83
2018-12-07T10:09:19.671Z,961.67
2018-12-07T10:10:19.627Z,961.62
2018-12-07T10:11:19.533Z,961.69
2018-12-07T10:12:19.480Z,961.68
2018-12-07T10:13:19.427Z,961.64
2018-12-07T10:14:19.373Z,961.58
2018-12-07T10:15:19.467Z,961.57
2018-12-07T10:16:19.264Z,961.58
2018-12-07T10:17:19.212Z,961.56
2018-12-07T10:18:19.157Z,961.54
2018-12-07T10:19:19.106Z,961.50
2018-12-07T10:20:19.093Z,961.55
2018-12-07T10:21:19.001Z,961.45
2018-12-07T10:22:18.943Z,961.53
2018-12-07T10:23:18.892Z,961.45
2018-12-07T10:24:18.837Z,961.43
2018-12-07T10:25:18.815Z,961.45
2018-12-07T10:26:18.734Z,961.38
2018-12-07T10:27:18.677Z,961.36
2018-12-07T10:28:18.624Z,961.36
2018-12-07T10:29:18.572Z,961.33
2018-12-07T10:30:18.555Z,961.33
2018-12-07T10:31:18.462Z,961.39
2018-12-07T10:32:18.445Z,961.36
2018-12-07T10:33:18.359Z,961.31
2018-12-07T10:34:18.302Z,961.22
2018-12-07T10:35:18.249Z,961.20
2018-12-07T10:36:18.203Z,961.23
2018-12-07T10:37:18.189Z,961.19
2018-12-07T10:38:18.893Z,961.28
2018-12-07T10:39:18.039Z,961.31
2018-12-07T10:40:17.983Z,961.13
2018-12-07T10:41:17.936Z,961.06
2018-12-07T10:42:17.908Z,961.07
2018-12-07T10:43:17.825Z,961.00
2018-12-07T10:44:17.775Z,961.02
2018-12-07T10:45:17.715Z,960.80
2018-12-07T10:46:17.663Z,960.90
2018-12-07T10:47:17.642Z,961.02
2018-12-07T10:48:17.554Z,960.91
2018-12-07T10:49:17.544Z,960.91
2018-12-07T10:50:17.450Z,960.97
2018-12-07T10:51:17.393Z,960.80
2018-12-07T10:52:17.343Z,960.84
2018-12-07T10:53:17.287Z,960.79
2018-12-07T10:54:17.267Z,960.81
2018-12-07T10:55:17.211Z,960.77
2018-12-07T10:56:17.166Z,960.73
2018-12-07T10:57:17.076Z,960.82
2018-12-07T10:58:17.020Z,960.68
2018-12-07T10:59:16.969Z,960.63
2018-12-07T11:00:22.738Z,960.64
2018-12-07T11:01:16.858Z,960.60
2018-12-07T11:02:16.805Z,960.53
2018-12-07T11:03:16.753Z,960.60
2018-12-07T11:04:16.698Z,960.54
2018-12-07T11:05:16.681Z,960.47
2018-12-07T11:06:16.593Z,960.50
2018-12-07T11:07:16.539Z,960.46
2018-12-07T11:08:16.522Z,960.47
2018-12-07T11:09:16.468Z,960.45
2018-12-07T11:10:16.379Z,960.47
2018-12-07T11:11:16.356Z,960.49
2018-12-07T11:12:16.276Z,960.45
2018-12-07T11:13:16.220Z,960.47
2018-12-07T11:14:16.167Z,960.43
2018-12-07T11:15:16.143Z,960.35
2018-12-07T11:16:16.057Z,960.30
2018-12-07T11:17:16.004Z,960.30
2018-12-07T11:18:15.952Z,960.36
2018-12-07T11:19:15.901Z,960.33
2018-12-07T11:20:15.878Z,960.27
2018-12-07T11:21:15.795Z,960.28
2018-12-07T11:22:15.741Z,960.33
2018-12-07T11:23:15.725Z,960.30
2018-12-07T11:24:15.635Z,960.33
2018-12-07T11:25:15.582Z,960.33
2018-12-07T11:26:15.527Z,960.33
2018-12-07T11:27:15.472Z,960.28
2018-12-07T11:28:15.452Z,960.23
2018-12-07T11:29:15.363Z,960.30
2018-12-07T11:30:15.311Z,960.20
2018-12-07T11:31:15.288Z,960.18
2018-12-07T11:32:15.204Z,960.17
2018-12-07T11:33:15.150Z,960.03
2018-12-07T11:34:15.131Z,960.18
2018-12-07T11:35:15.085Z,960.12
2018-12-07T11:36:14.990Z,960.09
2018-12-07T11:37:14.936Z,960.11
2018-12-07T11:38:14.882Z,960.01
2018-12-07T11:39:14.833Z,959.95
2018-12-07T11:40:14.809Z,960.04
2018-12-07T11:41:14.723Z,959.98
2018-12-07T11:42:14.670Z,959.92
2018-12-07T11:43:14.614Z,959.86
2018-12-07T11:44:14.603Z,959.92
2018-12-07T11:45:14.592Z,959.86
2018-12-07T11:46:14.458Z,959.91
2018-12-07T11:47:14.401Z,959.88
2018-12-07T11:48:14.350Z,959.89
2018-12-07T11:49:14.345Z,959.83
2018-12-07T11:50:14.242Z,959.84
2018-12-07T11:51:14.194Z,959.78
2018-12-07T11:52:14.143Z,959.78
2018-12-07T11:53:14.080Z,959.80
2018-12-07T11:54:14.061Z,959.82
2018-12-07T11:55:13.977Z,959.77
2018-12-07T11:56:13.922Z,959.75
2018-12-07T11:57:13.874Z,959.68
2018-12-07T11:58:13.857Z,959.70
2018-12-07T11:59:13.762Z,959.53
2018-12-07T12:00:13.712Z,959.64
2018-12-07T12:01:13.673Z,959.64
2018-12-07T12:02:13.606Z,959.54
2018-12-07T12:03:13.581Z,959.56
2018-12-07T12:04:13.528Z,959.51
2018-12-07T12:05:13.442Z,959.44
2018-12-07T12:06:13.393Z,959.43
2018-12-07T12:07:13.334Z,959.32
2018-12-07T12:08:13.281Z,959.29
2018-12-07T12:09:13.261Z,959.28
2018-12-07T12:10:13.172Z,959.36
2018-12-07T12:11:13.158Z,959.23
2018-12-07T12:12:13.070Z,959.16
2018-12-07T12:13:13.018Z,959.22
2018-12-07T12:14:12.962Z,959.15
2018-12-07T12:15:12.939Z,959.10
2018-12-07T12:16:12.853Z,959.09
2018-12-07T12:17:12.798Z,959.10
2018-12-07T12:18:12.745Z,959.10
2018-12-07T12:19:12.699Z,959.10
2018-12-07T12:20:12.675Z,959.00
2018-12-07T12:21:12.588Z,958.99
2018-12-07T12:22:12.536Z,958.93
2018-12-07T12:23:12.482Z,959.02
2018-12-07T12:24:12.427Z,958.92
2018-12-07T12:25:12.403Z,958.89
2018-12-07T12:26:12.349Z,958.89
2018-12-07T12:27:12.268Z,958.89
2018-12-07T12:28:12.215Z,958.79